Filia Joy — 3FIN9 — position and weather

sailwx.info

Track history (hours):
 
Tides and Currents Weather Stations Pressure Air Temp Water Temp Dewpoint Dewpoint Depression Visibility Wind Speed Wind Dir Waves Ship Positions

Filia Joy

Last reported at 2017-Sep-15 10:28 UTC. Time now 2017-Sep-23 23:45 UTC.
Position N 01°15' E 104°04'.
Warning: this ship's position is 8 days out of date.

Length 190 m; draft 6.5 m.

Type: Cargo ship. MMSI: 371999000.

Date/timePositionNaut miles runAvg speedWind from/ knotsBaromVisibWave heightAir tempDewpointWater temp
2017-Sep-15 10:28N 01°15' E 104°04'4 9.2
2017-Sep-15 09:59N 01°17' E 103°60'1 0.7
2017-Sep-15 08:38N 01°18' E 103°60'0 0.0
2017-Sep-15 08:26N 01°18' E 103°60'0 0.0
2017-Sep-15 07:29N 01°18' E 103°60'0 0.0
2017-Sep-15 05:32N 01°18' E 103°60'0 0.0
2017-Sep-15 05:23N 01°18' E 103°60'0 0.2
2017-Sep-15 04:47N 01°18' E 103°60'0 0.0
2017-Sep-15 04:17N 01°18' E 103°60'0 0.0
2017-Sep-15 03:59N 01°18' E 103°60'0 0.4
2017-Sep-15 03:29N 01°18' E 104°00'0 0.1
2017-Sep-15 02:59N 01°18' E 103°60'0 0.1
2017-Sep-15 01:50N 01°18' E 103°60'0 0.0
2017-Sep-15 01:17N 01°18' E 103°60'0 0.0
2017-Sep-15 00:56N 01°18' E 103°60'0 0.0
2017-Sep-14 23:29N 01°18' E 103°60'3 0.2
2017-Sep-14 03:26N 01°16' E 103°57'2 5.4
2017-Sep-14 03:00N 01°14' E 103°56'5 9.2
2017-Sep-14 02:29N 01°11' E 103°51'4 8.6
2017-Sep-14 01:59N 01°09' E 103°48'5 9.4
2017-Sep-14 01:28N 01°06' E 103°44'5 9.0
2017-Sep-14 00:55N 01°03' E 103°40'14 9.2
2017-Sep-13 23:23N 01°09' E 103°27'3 8.2
2017-Sep-13 22:59N 01°11' E 103°25'33011.6
2017-Sep-12 18:39N 05°30' E 100°00'213.3
2017-Sep-12 18:30N 05°31' E 100°02'813.3
2017-Sep-12 17:56N 05°35' E 100°08'610.6
2017-Sep-12 17:24N 05°35' E 100°14'410.8
2017-Sep-12 17:00N 05°32' E 100°18'4 8.9
2017-Sep-12 16:30N 05°29' E 100°20'510.7
2017-Sep-12 16:00N 05°23' E 100°22'0 0.2
2017-Sep-12 15:30N 05°23' E 100°22'0 0.0
2017-Sep-12 14:54N 05°23' E 100°22'0 0.0
2017-Sep-12 14:30N 05°23' E 100°22'0 0.0
2017-Sep-12 14:00N 05°23' E 100°22'0 0.0
2017-Sep-12 13:30N 05°23' E 100°22'0 0.0
2017-Sep-12 13:00N 05°23' E 100°22'0 0.0
2017-Sep-12 12:30N 05°23' E 100°22'0 0.0
2017-Sep-12 12:00N 05°23' E 100°22'0 0.0
2017-Sep-12 11:30N 05°23' E 100°22'0 0.0
2017-Sep-12 11:00N 05°23' E 100°22'0 0.0
2017-Sep-12 10:30N 05°23' E 100°22'0 0.0
2017-Sep-12 10:00N 05°23' E 100°22'0 0.0
2017-Sep-12 09:30N 05°23' E 100°22'0 0.0
2017-Sep-12 09:00N 05°23' E 100°22'0 0.0
2017-Sep-12 08:30N 05°23' E 100°22'0 0.0
2017-Sep-12 08:00N 05°23' E 100°22'0 0.0
2017-Sep-12 07:30N 05°23' E 100°22'0 0.0
2017-Sep-12 07:00N 05°23' E 100°22'0 0.0
2017-Sep-12 06:30N 05°23' E 100°22'0 0.0
2017-Sep-12 06:00N 05°23' E 100°22'0 0.0
2017-Sep-12 05:30N 05°23' E 100°22'0 0.0
2017-Sep-12 05:00N 05°23' E 100°22'0 0.0
2017-Sep-12 04:30N 05°23' E 100°22'0 0.0
2017-Sep-12 04:00N 05°23' E 100°22'0 0.0
2017-Sep-12 03:30N 05°23' E 100°22'0 0.0
2017-Sep-12 03:00N 05°23' E 100°22'0 0.0
2017-Sep-12 02:30N 05°23' E 100°22'0 0.0
2017-Sep-12 02:00N 05°23' E 100°22'0 0.0
2017-Sep-12 01:30N 05°23' E 100°22'0 0.0
2017-Sep-12 01:00N 05°23' E 100°22'0 0.0
2017-Sep-12 00:30N 05°23' E 100°22'0 0.0
2017-Sep-12 00:00N 05°23' E 100°22'0 0.0
2017-Sep-11 23:24N 05°23' E 100°22'0 0.0
2017-Sep-11 23:00N 05°23' E 100°22'0 0.0
2017-Sep-11 22:30N 05°23' E 100°22'0 0.0
2017-Sep-11 22:00N 05°23' E 100°22'0 0.0
2017-Sep-11 21:30N 05°23' E 100°22'0 0.0
2017-Sep-11 20:54N 05°23' E 100°22'0 0.0
2017-Sep-11 20:30N 05°23' E 100°22'0 0.0
2017-Sep-11 20:00N 05°23' E 100°22'0 0.0
2017-Sep-11 19:30N 05°23' E 100°22'0 0.0
2017-Sep-11 19:00N 05°23' E 100°22'0 0.0
2017-Sep-11 18:30N 05°23' E 100°22'0 0.0
2017-Sep-11 18:00N 05°23' E 100°22'0 0.0
2017-Sep-11 17:30N 05°23' E 100°22'0 0.0
2017-Sep-11 16:54N 05°23' E 100°22'0 0.0
2017-Sep-11 16:30N 05°23' E 100°22'0 0.0
2017-Sep-11 16:00N 05°23' E 100°22'0 0.0
2017-Sep-11 15:30N 05°23' E 100°22'0 0.0
2017-Sep-11 15:00N 05°23' E 100°22'0 0.0
2017-Sep-11 14:30N 05°23' E 100°22'0 0.0
2017-Sep-11 14:00N 05°23' E 100°22'0 0.0
2017-Sep-11 13:24N 05°23' E 100°22'0 0.0
2017-Sep-11 13:00N 05°23' E 100°22'0 0.0
2017-Sep-11 12:30N 05°23' E 100°22'0 0.0
2017-Sep-11 12:00N 05°23' E 100°22'0 0.0
2017-Sep-11 11:30N 05°23' E 100°22'0 0.0
2017-Sep-11 11:00N 05°23' E 100°22'0 0.0
2017-Sep-11 10:30N 05°23' E 100°22'0 0.0
2017-Sep-11 10:00N 05°23' E 100°22'0 0.0
2017-Sep-11 09:30N 05°23' E 100°22'0 0.0
2017-Sep-11 09:00N 05°23' E 100°22'0 0.0
2017-Sep-11 08:30N 05°23' E 100°22'0 0.0
2017-Sep-11 08:00N 05°23' E 100°22'0 0.0
2017-Sep-11 07:30N 05°23' E 100°22'0 0.0
2017-Sep-11 07:00N 05°23' E 100°22'0 0.0
2017-Sep-11 06:24N 05°23' E 100°22'0 0.0
2017-Sep-11 06:00N 05°23' E 100°22'0 0.0
2017-Sep-11 05:30N 05°23' E 100°22'0 0.0
2017-Sep-11 05:00N 05°23' E 100°22'0 0.0
2017-Sep-11 04:30N 05°23' E 100°22'0 0.0
2017-Sep-11 04:00N 05°23' E 100°22'0 0.0
2017-Sep-11 03:30N 05°23' E 100°22'0 0.0
2017-Sep-11 03:00N 05°23' E 100°22'0 0.0
2017-Sep-11 02:30N 05°23' E 100°22'0 0.0
2017-Sep-11 02:00N 05°23' E 100°22'0 0.0
2017-Sep-11 01:30N 05°23' E 100°22'0 0.0
2017-Sep-11 00:54N 05°23' E 100°22'0 0.0
2017-Sep-11 00:30N 05°23' E 100°22'0 0.0
2017-Sep-11 00:00N 05°23' E 100°22'0 0.0
2017-Sep-10 23:30N 05°23' E 100°22'0 0.0
2017-Sep-10 23:00N 05°23' E 100°22'0 0.0
2017-Sep-10 22:30N 05°23' E 100°22'0 0.0
2017-Sep-10 22:00N 05°23' E 100°22'0 0.0
2017-Sep-10 21:30N 05°23' E 100°22'0 0.0
2017-Sep-10 21:00N 05°23' E 100°22'0 0.0
2017-Sep-10 20:30N 05°23' E 100°22'0 0.0
2017-Sep-10 20:00N 05°23' E 100°22'0 0.0
2017-Sep-10 19:30N 05°23' E 100°22'0 0.0
2017-Sep-10 18:54N 05°23' E 100°22'0 0.0
2017-Sep-10 18:30N 05°23' E 100°22'0 0.0
2017-Sep-10 18:00N 05°23' E 100°22'0 0.0
2017-Sep-10 17:30N 05°23' E 100°22'0 0.0
2017-Sep-10 17:00N 05°23' E 100°22'0 0.0
2017-Sep-10 16:30N 05°23' E 100°22'0 0.0
2017-Sep-10 16:00N 05°23' E 100°22'0 0.0
2017-Sep-10 15:30N 05°23' E 100°22'0 0.0
2017-Sep-10 15:00N 05°23' E 100°22'0 0.0
2017-Sep-10 14:00N 05°23' E 100°22'0 0.0
2017-Sep-10 13:30N 05°23' E 100°22'0 0.0
2017-Sep-10 13:00N 05°23' E 100°22'0 0.0
2017-Sep-10 12:24N 05°23' E 100°22'0 0.0
2017-Sep-10 12:00N 05°23' E 100°22'0 0.0
2017-Sep-10 11:30N 05°23' E 100°22'0 0.0
2017-Sep-10 11:00N 05°23' E 100°22'0 0.0
2017-Sep-10 10:30N 05°23' E 100°22'0 0.0
2017-Sep-10 10:00N 05°23' E 100°22'0 0.0
2017-Sep-10 09:30N 05°23' E 100°22'0 0.0
2017-Sep-10 09:00N 05°23' E 100°22'0 0.0
2017-Sep-10 08:30N 05°23' E 100°22'0 0.0
2017-Sep-10 08:00N 05°23' E 100°22'0 0.0
2017-Sep-10 07:30N 05°23' E 100°22'0 0.0
2017-Sep-10 07:00N 05°23' E 100°22'0 0.0
2017-Sep-10 06:30N 05°23' E 100°22'0 0.0
2017-Sep-10 06:00N 05°23' E 100°22'0 0.0
2017-Sep-10 05:30N 05°23' E 100°22'0 0.0
2017-Sep-10 05:00N 05°23' E 100°22'0 0.0
2017-Sep-10 04:30N 05°23' E 100°22'0 0.0
2017-Sep-10 04:00N 05°23' E 100°22'0 0.0
2017-Sep-10 03:30N 05°23' E 100°22'0 0.0
2017-Sep-10 03:00N 05°23' E 100°22'0 0.0
2017-Sep-10 02:30N 05°23' E 100°22'0 0.0
2017-Sep-10 02:00N 05°23' E 100°22'0 0.0
2017-Sep-10 01:30N 05°23' E 100°22'0 0.0
2017-Sep-10 01:00N 05°23' E 100°22'0 0.0
2017-Sep-10 00:30N 05°23' E 100°22'0 0.0
2017-Sep-10 00:00N 05°23' E 100°22'0 0.0
2017-Sep-09 23:30N 05°23' E 100°22'0 0.0
2017-Sep-09 23:00N 05°23' E 100°22'0 0.0
2017-Sep-09 22:30N 05°23' E 100°22'0 0.0
2017-Sep-09 22:00N 05°23' E 100°22'0 0.0
2017-Sep-09 21:30N 05°23' E 100°22'0 0.0
2017-Sep-09 21:00N 05°23' E 100°22'0 0.0
2017-Sep-09 20:30N 05°23' E 100°22'0 0.0
2017-Sep-09 20:00N 05°23' E 100°22'0 0.0
2017-Sep-09 19:30N 05°23' E 100°22'0 0.0
2017-Sep-09 19:00N 05°23' E 100°22'0 0.0
2017-Sep-09 18:30N 05°23' E 100°22'0 0.0
2017-Sep-09 18:00N 05°23' E 100°22'0 0.0
2017-Sep-09 17:30N 05°23' E 100°22'0 0.0
2017-Sep-09 17:00N 05°23' E 100°22'0 0.0
2017-Sep-09 16:30N 05°23' E 100°22'0 0.0
2017-Sep-09 16:00N 05°23' E 100°22'0 0.0
2017-Sep-09 15:30N 05°23' E 100°22'0 0.0
2017-Sep-09 15:00N 05°23' E 100°22'0 0.0
2017-Sep-09 14:30N 05°23' E 100°22'0 0.0
2017-Sep-09 14:00N 05°23' E 100°22'0 0.0
2017-Sep-09 13:30N 05°23' E 100°22'0 0.0
2017-Sep-09 13:00N 05°23' E 100°22'0 0.0
2017-Sep-09 12:30N 05°23' E 100°22'0 0.0
2017-Sep-09 12:00N 05°23' E 100°22'0 0.0
2017-Sep-09 11:30N 05°23' E 100°22'0 0.0
2017-Sep-09 11:00N 05°23' E 100°22'0 0.0
2017-Sep-09 10:30N 05°23' E 100°22'0 0.0
2017-Sep-09 10:00N 05°23' E 100°22'0 0.0
2017-Sep-09 09:30N 05°23' E 100°22'0 0.0
2017-Sep-09 09:00N 05°23' E 100°22'0 0.0
2017-Sep-09 08:30N 05°23' E 100°22'0 0.0
2017-Sep-09 08:00N 05°23' E 100°22'0 0.0
2017-Sep-09 07:30N 05°23' E 100°22'0 0.0
2017-Sep-09 07:00N 05°23' E 100°22'0 0.0
2017-Sep-09 06:30N 05°23' E 100°22'0 0.0
2017-Sep-09 06:00N 05°23' E 100°22'0 0.0
2017-Sep-09 05:30N 05°23' E 100°22'0 0.0
2017-Sep-09 05:00N 05°23' E 100°22'0 0.0
2017-Sep-09 04:30N 05°23' E 100°22'0 0.0
2017-Sep-09 04:00N 05°23' E 100°22'0 0.0
2017-Sep-09 03:30N 05°23' E 100°22'0 0.0
2017-Sep-09 03:00N 05°23' E 100°22'0 0.0
2017-Sep-09 02:30N 05°23' E 100°22'0 0.0
2017-Sep-09 02:00N 05°23' E 100°22'0 0.0
2017-Sep-09 01:30N 05°23' E 100°22'0 0.0
2017-Sep-09 01:00N 05°23' E 100°22'0 0.0
2017-Sep-09 00:30N 05°23' E 100°22'0 0.0
2017-Sep-09 00:00N 05°23' E 100°22'0 0.0
2017-Sep-08 23:18N 05°23' E 100°22'0 0.0
2017-Sep-08 23:00N 05°23' E 100°22'0 0.0
2017-Sep-08 22:30N 05°23' E 100°22'0 0.0
2017-Sep-08 22:00N 05°23' E 100°22'0 0.0
2017-Sep-08 21:30N 05°23' E 100°22'0 0.0
2017-Sep-08 21:00N 05°23' E 100°22'0 0.0
2017-Sep-08 20:30N 05°23' E 100°22'0 0.0
2017-Sep-08 20:00N 05°23' E 100°22'0 0.0
2017-Sep-08 19:30N 05°23' E 100°22'0 0.0
2017-Sep-08 19:00N 05°23' E 100°22'0 0.0
2017-Sep-08 18:30N 05°23' E 100°22'0 0.0
2017-Sep-08 18:00N 05°23' E 100°22'0 0.0
2017-Sep-08 17:30N 05°23' E 100°22'0 0.0
2017-Sep-08 17:00N 05°23' E 100°22'0 0.0
2017-Sep-08 16:30N 05°23' E 100°22'0 0.0
2017-Sep-08 16:00N 05°23' E 100°22'0 0.0
2017-Sep-08 15:30N 05°23' E 100°22'0 0.0
2017-Sep-08 15:00N 05°23' E 100°22'0 0.0
2017-Sep-08 14:30N 05°23' E 100°22'0 0.0
2017-Sep-08 14:00N 05°23' E 100°22'0 0.0
2017-Sep-08 13:30N 05°23' E 100°22'0 0.0
2017-Sep-08 12:54N 05°23' E 100°22'0 0.0
2017-Sep-08 12:30N 05°23' E 100°22'0 0.0
2017-Sep-08 12:00N 05°23' E 100°22'0 0.0
2017-Sep-08 11:30N 05°23' E 100°22'0 0.0
2017-Sep-08 11:00N 05°23' E 100°22'0 0.0
2017-Sep-08 10:30N 05°23' E 100°22'0 0.0
2017-Sep-08 10:00N 05°23' E 100°22'0 0.0
2017-Sep-08 09:30N 05°23' E 100°22'0 0.0
2017-Sep-08 09:00N 05°23' E 100°22'0 0.0
2017-Sep-08 08:30N 05°23' E 100°22'0 0.0
2017-Sep-08 08:00N 05°23' E 100°22'0 0.0
2017-Sep-08 07:30N 05°23' E 100°22'0 0.0
2017-Sep-08 07:00N 05°23' E 100°22'0 0.0
2017-Sep-08 06:30N 05°23' E 100°22'0 0.0
2017-Sep-08 06:00N 05°23' E 100°22'0 0.0
2017-Sep-08 05:30N 05°23' E 100°22'0 0.0
2017-Sep-08 05:00N 05°23' E 100°22'0 0.0
2017-Sep-08 04:30N 05°23' E 100°22'0 0.0
2017-Sep-08 04:00N 05°23' E 100°22'0 0.0
2017-Sep-08 03:30N 05°23' E 100°22'0 0.0
2017-Sep-08 03:00N 05°23' E 100°22'0 0.0
2017-Sep-08 02:30N 05°23' E 100°22'0 0.0
2017-Sep-08 02:00N 05°23' E 100°22'0 0.0
2017-Sep-08 01:30N 05°23' E 100°22'0 0.0
2017-Sep-08 01:00N 05°23' E 100°22'0 0.0
2017-Sep-08 00:30N 05°23' E 100°22'0 0.0
2017-Sep-08 00:00N 05°23' E 100°22'0 0.0
2017-Sep-07 23:30N 05°23' E 100°22'0 0.0
2017-Sep-07 23:00N 05°23' E 100°22'0 0.0
2017-Sep-07 22:30N 05°23' E 100°22'0 0.0
2017-Sep-07 22:00N 05°23' E 100°22'0 0.0
2017-Sep-07 21:30N 05°23' E 100°22'0 0.0
2017-Sep-07 21:00N 05°23' E 100°22'0 0.0
2017-Sep-07 20:30N 05°23' E 100°22'0 0.0
2017-Sep-07 20:00N 05°23' E 100°22'0 0.0
2017-Sep-07 19:30N 05°23' E 100°22'0 0.0
2017-Sep-07 19:00N 05°23' E 100°22'0 0.0
2017-Sep-07 18:30N 05°23' E 100°22'0 0.0
2017-Sep-07 18:00N 05°23' E 100°22'0 0.0
2017-Sep-07 17:18N 05°23' E 100°22'0 0.0
2017-Sep-07 17:00N 05°23' E 100°22'0 0.0
2017-Sep-07 16:30N 05°23' E 100°22'0 0.0
2017-Sep-07 16:00N 05°23' E 100°22'0 0.0
2017-Sep-07 15:30N 05°23' E 100°22'0 0.0
2017-Sep-07 15:00N 05°23' E 100°22'0 0.0
2017-Sep-07 14:30N 05°23' E 100°22'0 0.0
2017-Sep-07 14:00N 05°23' E 100°22'0 0.0
2017-Sep-07 13:30N 05°23' E 100°22'0 0.0
2017-Sep-07 13:00N 05°23' E 100°22'0 0.0
2017-Sep-07 12:30N 05°23' E 100°22'0 0.0
2017-Sep-07 12:00N 05°23' E 100°22'0 0.0
2017-Sep-07 11:30N 05°23' E 100°22'0 0.0
2017-Sep-07 11:00N 05°23' E 100°22'0 0.0
2017-Sep-07 10:30N 05°23' E 100°22'0 0.0
2017-Sep-07 10:00N 05°23' E 100°22'0 0.0
2017-Sep-07 09:30N 05°23' E 100°22'0 0.0
2017-Sep-07 09:00N 05°23' E 100°22'0 0.0
2017-Sep-07 08:30N 05°23' E 100°22'0 0.0
2017-Sep-07 08:00N 05°23' E 100°22'0 0.0
2017-Sep-07 07:30N 05°23' E 100°22'0 0.0
2017-Sep-07 07:00N 05°23' E 100°22'0 0.0
2017-Sep-07 06:30N 05°23' E 100°22'0 0.0
2017-Sep-07 06:00N 05°23' E 100°22'0 0.0
2017-Sep-07 05:30N 05°23' E 100°22'0 0.0
2017-Sep-07 05:00N 05°23' E 100°22'0 0.0
2017-Sep-07 04:30N 05°23' E 100°22'0 0.0
2017-Sep-07 04:00N 05°23' E 100°22'0 0.0
2017-Sep-07 03:30N 05°23' E 100°22'0 0.0
2017-Sep-07 03:00N 05°23' E 100°22'0 0.0
2017-Sep-07 02:30N 05°23' E 100°22'0 0.0
2017-Sep-07 02:00N 05°23' E 100°22'0 0.0
2017-Sep-07 01:30N 05°23' E 100°22'0 0.0
2017-Sep-07 01:00N 05°23' E 100°22'0 0.0
2017-Sep-07 00:30N 05°23' E 100°22'0 0.0
2017-Sep-07 00:00N 05°23' E 100°22'0 0.0
2017-Sep-06 23:30N 05°23' E 100°22'0 0.0
2017-Sep-06 22:54N 05°23' E 100°22'0 0.0
2017-Sep-06 22:30N 05°23' E 100°22'0 0.0
2017-Sep-06 22:00N 05°23' E 100°22'0 0.0
2017-Sep-06 21:30N 05°23' E 100°22'0 0.0
2017-Sep-06 21:00N 05°23' E 100°22'0 0.0
2017-Sep-06 20:30N 05°23' E 100°22'0 0.0
2017-Sep-06 20:00N 05°23' E 100°22'0 0.0
2017-Sep-06 19:30N 05°23' E 100°22'0 0.0
2017-Sep-06 19:00N 05°23' E 100°22'0 0.0
2017-Sep-06 18:30N 05°23' E 100°22'0 0.0
2017-Sep-06 18:00N 05°23' E 100°22'0 0.0
2017-Sep-06 17:30N 05°23' E 100°22'0 0.0
2017-Sep-06 17:00N 05°23' E 100°22'0 0.0
2017-Sep-06 16:30N 05°23' E 100°22'0 0.0
2017-Sep-06 16:00N 05°23' E 100°22'0 0.0
2017-Sep-06 15:30N 05°23' E 100°22'0 0.0
2017-Sep-06 15:00N 05°23' E 100°22'0 0.0
2017-Sep-06 14:30N 05°23' E 100°22'0 0.0
2017-Sep-06 13:48N 05°23' E 100°22'0 0.0
2017-Sep-06 13:30N 05°23' E 100°22'0 0.0
2017-Sep-06 13:00N 05°23' E 100°22'0 0.0
2017-Sep-06 12:30N 05°23' E 100°22'0 0.0
2017-Sep-06 12:00N 05°23' E 100°22'0 0.0
2017-Sep-06 11:30N 05°23' E 100°22'0 0.0
2017-Sep-06 11:00N 05°23' E 100°22'0 0.0
2017-Sep-06 10:30N 05°23' E 100°22'0 0.0
2017-Sep-06 10:00N 05°23' E 100°22'0 0.0
2017-Sep-06 09:30N 05°23' E 100°22'0 0.0
2017-Sep-06 08:54N 05°23' E 100°22'0 0.0
2017-Sep-06 08:30N 05°23' E 100°22'0 0.0
2017-Sep-06 08:00N 05°23' E 100°22'0 0.0
2017-Sep-06 07:30N 05°23' E 100°22'0 0.0
2017-Sep-06 07:00N 05°23' E 100°22'0 0.0
2017-Sep-06 06:30N 05°23' E 100°22'0 0.0
2017-Sep-06 06:00N 05°23' E 100°22'0 0.0
2017-Sep-06 05:30N 05°23' E 100°22'0 0.0
2017-Sep-06 05:00N 05°23' E 100°22'0 0.0
2017-Sep-06 04:30N 05°23' E 100°22'0 0.0
2017-Sep-06 04:00N 05°23' E 100°22'0 0.0
2017-Sep-06 03:30N 05°23' E 100°22'0 0.0
2017-Sep-06 03:00N 05°23' E 100°22'0 0.0
2017-Sep-06 02:30N 05°23' E 100°22'0 0.0
2017-Sep-06 02:00N 05°23' E 100°22'0 0.0
2017-Sep-06 01:30N 05°23' E 100°22'0 0.0
2017-Sep-06 01:00N 05°23' E 100°22'0 0.0
2017-Sep-06 00:30N 05°23' E 100°22'0 0.0
2017-Sep-06 00:00N 05°23' E 100°22'0 0.0
2017-Sep-05 23:30N 05°23' E 100°22'0 0.0
2017-Sep-05 23:00N 05°23' E 100°22'0 0.0
2017-Sep-05 22:30N 05°23' E 100°22'0 0.0
2017-Sep-05 22:00N 05°23' E 100°22'0 0.0
2017-Sep-05 21:30N 05°23' E 100°22'0 0.0
2017-Sep-05 21:00N 05°23' E 100°22'0 0.0
2017-Sep-05 20:12N 05°23' E 100°22'0 0.0
2017-Sep-05 20:00N 05°23' E 100°22'0 0.0
2017-Sep-05 19:30N 05°23' E 100°22'0 0.0
2017-Sep-05 19:00N 05°23' E 100°22'0 0.0
2017-Sep-05 18:30N 05°23' E 100°22'0 0.0
2017-Sep-05 18:00N 05°23' E 100°22'0 0.0
2017-Sep-05 17:30N 05°23' E 100°22'0 0.0
2017-Sep-05 17:00N 05°23' E 100°22'0 0.0
2017-Sep-05 16:24N 05°23' E 100°22'0 0.0
2017-Sep-05 16:00N 05°23' E 100°22'0 0.0
2017-Sep-05 15:30N 05°23' E 100°22'0 0.0
2017-Sep-05 15:00N 05°23' E 100°22'0 0.0
2017-Sep-05 14:30N 05°23' E 100°22'0 0.0
2017-Sep-05 14:00N 05°23' E 100°22'0 0.0
2017-Sep-05 13:30N 05°23' E 100°22'0 0.0
2017-Sep-05 13:00N 05°23' E 100°22'0 0.0
2017-Sep-05 12:30N 05°23' E 100°22'0 0.0
2017-Sep-05 12:00N 05°23' E 100°22'0 0.0
2017-Sep-05 11:30N 05°23' E 100°22'0 0.0
2017-Sep-05 11:00N 05°23' E 100°22'0 0.0
2017-Sep-05 10:30N 05°23' E 100°22'  
Track history (hours):
 
Tides and Currents Weather Stations Pressure Air Temp Water Temp Dewpoint Dewpoint Depression Visibility Wind Speed Wind Dir Waves Ship Positions

Filia Joy

Last reported at 2017-Sep-15 10:28 UTC. Time now 2017-Sep-23 23:45 UTC.
Position N 01°15' E 104°04'.
Warning: this ship's position is 8 days out of date.

Length 190 m; draft 6.5 m.

Type: Cargo ship. MMSI: 371999000.

Date/timePositionNaut miles runAvg speedWind from/ knotsBaromVisibWave heightAir tempDewpointWater temp
2017-Sep-15 10:28N 01°15' E 104°04'4 9.2
2017-Sep-15 09:59N 01°17' E 103°60'1 0.7
2017-Sep-15 08:38N 01°18' E 103°60'0 0.0
2017-Sep-15 08:26N 01°18' E 103°60'0 0.0
2017-Sep-15 07:29N 01°18' E 103°60'0 0.0
2017-Sep-15 05:32N 01°18' E 103°60'0 0.0
2017-Sep-15 05:23N 01°18' E 103°60'0 0.2
2017-Sep-15 04:47N 01°18' E 103°60'0 0.0
2017-Sep-15 04:17N 01°18' E 103°60'0 0.0
2017-Sep-15 03:59N 01°18' E 103°60'0 0.4
2017-Sep-15 03:29N 01°18' E 104°00'0 0.1
2017-Sep-15 02:59N 01°18' E 103°60'0 0.1
2017-Sep-15 01:50N 01°18' E 103°60'0 0.0
2017-Sep-15 01:17N 01°18' E 103°60'0 0.0
2017-Sep-15 00:56N 01°18' E 103°60'0 0.0
2017-Sep-14 23:29N 01°18' E 103°60'3 0.2
2017-Sep-14 03:26N 01°16' E 103°57'2 5.4
2017-Sep-14 03:00N 01°14' E 103°56'5 9.2
2017-Sep-14 02:29N 01°11' E 103°51'4 8.6
2017-Sep-14 01:59N 01°09' E 103°48'5 9.4
2017-Sep-14 01:28N 01°06' E 103°44'5 9.0
2017-Sep-14 00:55N 01°03' E 103°40'14 9.2
2017-Sep-13 23:23N 01°09' E 103°27'3 8.2
2017-Sep-13 22:59N 01°11' E 103°25'33011.6
2017-Sep-12 18:39N 05°30' E 100°00'213.3
2017-Sep-12 18:30N 05°31' E 100°02'813.3
2017-Sep-12 17:56N 05°35' E 100°08'610.6
2017-Sep-12 17:24N 05°35' E 100°14'410.8
2017-Sep-12 17:00N 05°32' E 100°18'4 8.9
2017-Sep-12 16:30N 05°29' E 100°20'510.7
2017-Sep-12 16:00N 05°23' E 100°22'0 0.2
2017-Sep-12 15:30N 05°23' E 100°22'0 0.0
2017-Sep-12 14:54N 05°23' E 100°22'0 0.0
2017-Sep-12 14:30N 05°23' E 100°22'0 0.0
2017-Sep-12 14:00N 05°23' E 100°22'0 0.0
2017-Sep-12 13:30N 05°23' E 100°22'0 0.0
2017-Sep-12 13:00N 05°23' E 100°22'0 0.0
2017-Sep-12 12:30N 05°23' E 100°22'0 0.0
2017-Sep-12 12:00N 05°23' E 100°22'0 0.0
2017-Sep-12 11:30N 05°23' E 100°22'0 0.0
2017-Sep-12 11:00N 05°23' E 100°22'0 0.0
2017-Sep-12 10:30N 05°23' E 100°22'0 0.0
2017-Sep-12 10:00N 05°23' E 100°22'0 0.0
2017-Sep-12 09:30N 05°23' E 100°22'0 0.0
2017-Sep-12 09:00N 05°23' E 100°22'0 0.0
2017-Sep-12 08:30N 05°23' E 100°22'0 0.0
2017-Sep-12 08:00N 05°23' E 100°22'0 0.0
2017-Sep-12 07:30N 05°23' E 100°22'0 0.0
2017-Sep-12 07:00N 05°23' E 100°22'0 0.0
2017-Sep-12 06:30N 05°23' E 100°22'0 0.0
2017-Sep-12 06:00N 05°23' E 100°22'0 0.0
2017-Sep-12 05:30N 05°23' E 100°22'0 0.0
2017-Sep-12 05:00N 05°23' E 100°22'0 0.0
2017-Sep-12 04:30N 05°23' E 100°22'0 0.0
2017-Sep-12 04:00N 05°23' E 100°22'0 0.0
2017-Sep-12 03:30N 05°23' E 100°22'0 0.0
2017-Sep-12 03:00N 05°23' E 100°22'0 0.0
2017-Sep-12 02:30N 05°23' E 100°22'0 0.0
2017-Sep-12 02:00N 05°23' E 100°22'0 0.0
2017-Sep-12 01:30N 05°23' E 100°22'0 0.0
2017-Sep-12 01:00N 05°23' E 100°22'0 0.0
2017-Sep-12 00:30N 05°23' E 100°22'0 0.0
2017-Sep-12 00:00N 05°23' E 100°22'0 0.0
2017-Sep-11 23:24N 05°23' E 100°22'0 0.0
2017-Sep-11 23:00N 05°23' E 100°22'0 0.0
2017-Sep-11 22:30N 05°23' E 100°22'0 0.0
2017-Sep-11 22:00N 05°23' E 100°22'0 0.0
2017-Sep-11 21:30N 05°23' E 100°22'0 0.0
2017-Sep-11 20:54N 05°23' E 100°22'0 0.0
2017-Sep-11 20:30N 05°23' E 100°22'0 0.0
2017-Sep-11 20:00N 05°23' E 100°22'0 0.0
2017-Sep-11 19:30N 05°23' E 100°22'0 0.0
2017-Sep-11 19:00N 05°23' E 100°22'0 0.0
2017-Sep-11 18:30N 05°23' E 100°22'0 0.0
2017-Sep-11 18:00N 05°23' E 100°22'0 0.0
2017-Sep-11 17:30N 05°23' E 100°22'0 0.0
2017-Sep-11 16:54N 05°23' E 100°22'0 0.0
2017-Sep-11 16:30N 05°23' E 100°22'0 0.0
2017-Sep-11 16:00N 05°23' E 100°22'0 0.0
2017-Sep-11 15:30N 05°23' E 100°22'0 0.0
2017-Sep-11 15:00N 05°23' E 100°22'0 0.0
2017-Sep-11 14:30N 05°23' E 100°22'0 0.0
2017-Sep-11 14:00N 05°23' E 100°22'0 0.0
2017-Sep-11 13:24N 05°23' E 100°22'0 0.0
2017-Sep-11 13:00N 05°23' E 100°22'0 0.0
2017-Sep-11 12:30N 05°23' E 100°22'0 0.0
2017-Sep-11 12:00N 05°23' E 100°22'0 0.0
2017-Sep-11 11:30N 05°23' E 100°22'0 0.0
2017-Sep-11 11:00N 05°23' E 100°22'0 0.0
2017-Sep-11 10:30N 05°23' E 100°22'0 0.0
2017-Sep-11 10:00N 05°23' E 100°22'0 0.0
2017-Sep-11 09:30N 05°23' E 100°22'0 0.0
2017-Sep-11 09:00N 05°23' E 100°22'0 0.0
2017-Sep-11 08:30N 05°23' E 100°22'0 0.0
2017-Sep-11 08:00N 05°23' E 100°22'0 0.0
2017-Sep-11 07:30N 05°23' E 100°22'0 0.0
2017-Sep-11 07:00N 05°23' E 100°22'0 0.0
2017-Sep-11 06:24N 05°23' E 100°22'0 0.0
2017-Sep-11 06:00N 05°23' E 100°22'0 0.0
2017-Sep-11 05:30N 05°23' E 100°22'0 0.0
2017-Sep-11 05:00N 05°23' E 100°22'0 0.0
2017-Sep-11 04:30N 05°23' E 100°22'0 0.0
2017-Sep-11 04:00N 05°23' E 100°22'0 0.0
2017-Sep-11 03:30N 05°23' E 100°22'0 0.0
2017-Sep-11 03:00N 05°23' E 100°22'0 0.0
2017-Sep-11 02:30N 05°23' E 100°22'0 0.0
2017-Sep-11 02:00N 05°23' E 100°22'0 0.0
2017-Sep-11 01:30N 05°23' E 100°22'0 0.0
2017-Sep-11 00:54N 05°23' E 100°22'0 0.0
2017-Sep-11 00:30N 05°23' E 100°22'0 0.0
2017-Sep-11 00:00N 05°23' E 100°22'0 0.0
2017-Sep-10 23:30N 05°23' E 100°22'0 0.0
2017-Sep-10 23:00N 05°23' E 100°22'0 0.0
2017-Sep-10 22:30N 05°23' E 100°22'0 0.0
2017-Sep-10 22:00N 05°23' E 100°22'0 0.0
2017-Sep-10 21:30N 05°23' E 100°22'0 0.0
2017-Sep-10 21:00N 05°23' E 100°22'0 0.0
2017-Sep-10 20:30N 05°23' E 100°22'0 0.0
2017-Sep-10 20:00N 05°23' E 100°22'0 0.0
2017-Sep-10 19:30N 05°23' E 100°22'0 0.0
2017-Sep-10 18:54N 05°23' E 100°22'0 0.0
2017-Sep-10 18:30N 05°23' E 100°22'0 0.0
2017-Sep-10 18:00N 05°23' E 100°22'0 0.0
2017-Sep-10 17:30N 05°23' E 100°22'0 0.0
2017-Sep-10 17:00N 05°23' E 100°22'0 0.0
2017-Sep-10 16:30N 05°23' E 100°22'0 0.0
2017-Sep-10 16:00N 05°23' E 100°22'0 0.0
2017-Sep-10 15:30N 05°23' E 100°22'0 0.0
2017-Sep-10 15:00N 05°23' E 100°22'0 0.0
2017-Sep-10 14:00N 05°23' E 100°22'0 0.0
2017-Sep-10 13:30N 05°23' E 100°22'0 0.0
2017-Sep-10 13:00N 05°23' E 100°22'0 0.0
2017-Sep-10 12:24N 05°23' E 100°22'0 0.0
2017-Sep-10 12:00N 05°23' E 100°22'0 0.0
2017-Sep-10 11:30N 05°23' E 100°22'0 0.0
2017-Sep-10 11:00N 05°23' E 100°22'0 0.0
2017-Sep-10 10:30N 05°23' E 100°22'0 0.0
2017-Sep-10 10:00N 05°23' E 100°22'0 0.0
2017-Sep-10 09:30N 05°23' E 100°22'0 0.0
2017-Sep-10 09:00N 05°23' E 100°22'0 0.0
2017-Sep-10 08:30N 05°23' E 100°22'0 0.0
2017-Sep-10 08:00N 05°23' E 100°22'0 0.0
2017-Sep-10 07:30N 05°23' E 100°22'0 0.0
2017-Sep-10 07:00N 05°23' E 100°22'0 0.0
2017-Sep-10 06:30N 05°23' E 100°22'0 0.0
2017-Sep-10 06:00N 05°23' E 100°22'0 0.0
2017-Sep-10 05:30N 05°23' E 100°22'0 0.0
2017-Sep-10 05:00N 05°23' E 100°22'0 0.0
2017-Sep-10 04:30N 05°23' E 100°22'0 0.0
2017-Sep-10 04:00N 05°23' E 100°22'0 0.0
2017-Sep-10 03:30N 05°23' E 100°22'0 0.0
2017-Sep-10 03:00N 05°23' E 100°22'0 0.0
2017-Sep-10 02:30N 05°23' E 100°22'0 0.0
2017-Sep-10 02:00N 05°23' E 100°22'0 0.0
2017-Sep-10 01:30N 05°23' E 100°22'0 0.0
2017-Sep-10 01:00N 05°23' E 100°22'0 0.0
2017-Sep-10 00:30N 05°23' E 100°22'0 0.0
2017-Sep-10 00:00N 05°23' E 100°22'0 0.0
2017-Sep-09 23:30N 05°23' E 100°22'0 0.0
2017-Sep-09 23:00N 05°23' E 100°22'0 0.0
2017-Sep-09 22:30N 05°23' E 100°22'0 0.0
2017-Sep-09 22:00N 05°23' E 100°22'0 0.0
2017-Sep-09 21:30N 05°23' E 100°22'0 0.0
2017-Sep-09 21:00N 05°23' E 100°22'0 0.0
2017-Sep-09 20:30N 05°23' E 100°22'0 0.0
2017-Sep-09 20:00N 05°23' E 100°22'0 0.0
2017-Sep-09 19:30N 05°23' E 100°22'0 0.0
2017-Sep-09 19:00N 05°23' E 100°22'0 0.0
2017-Sep-09 18:30N 05°23' E 100°22'0 0.0
2017-Sep-09 18:00N 05°23' E 100°22'0 0.0
2017-Sep-09 17:30N 05°23' E 100°22'0 0.0
2017-Sep-09 17:00N 05°23' E 100°22'0 0.0
2017-Sep-09 16:30N 05°23' E 100°22'0 0.0
2017-Sep-09 16:00N 05°23' E 100°22'0 0.0
2017-Sep-09 15:30N 05°23' E 100°22'0 0.0
2017-Sep-09 15:00N 05°23' E 100°22'0 0.0
2017-Sep-09 14:30N 05°23' E 100°22'0 0.0
2017-Sep-09 14:00N 05°23' E 100°22'0 0.0
2017-Sep-09 13:30N 05°23' E 100°22'0 0.0
2017-Sep-09 13:00N 05°23' E 100°22'0 0.0
2017-Sep-09 12:30N 05°23' E 100°22'0 0.0
2017-Sep-09 12:00N 05°23' E 100°22'0 0.0
2017-Sep-09 11:30N 05°23' E 100°22'0 0.0
2017-Sep-09 11:00N 05°23' E 100°22'0 0.0
2017-Sep-09 10:30N 05°23' E 100°22'0 0.0
2017-Sep-09 10:00N 05°23' E 100°22'0 0.0
2017-Sep-09 09:30N 05°23' E 100°22'0 0.0
2017-Sep-09 09:00N 05°23' E 100°22'0 0.0
2017-Sep-09 08:30N 05°23' E 100°22'0 0.0
2017-Sep-09 08:00N 05°23' E 100°22'0 0.0
2017-Sep-09 07:30N 05°23' E 100°22'0 0.0
2017-Sep-09 07:00N 05°23' E 100°22'0 0.0
2017-Sep-09 06:30N 05°23' E 100°22'0 0.0
2017-Sep-09 06:00N 05°23' E 100°22'0 0.0
2017-Sep-09 05:30N 05°23' E 100°22'0 0.0
2017-Sep-09 05:00N 05°23' E 100°22'0 0.0
2017-Sep-09 04:30N 05°23' E 100°22'0 0.0
2017-Sep-09 04:00N 05°23' E 100°22'0 0.0
2017-Sep-09 03:30N 05°23' E 100°22'0 0.0
2017-Sep-09 03:00N 05°23' E 100°22'0 0.0
2017-Sep-09 02:30N 05°23' E 100°22'0 0.0
2017-Sep-09 02:00N 05°23' E 100°22'0 0.0
2017-Sep-09 01:30N 05°23' E 100°22'0 0.0
2017-Sep-09 01:00N 05°23' E 100°22'0 0.0
2017-Sep-09 00:30N 05°23' E 100°22'0 0.0
2017-Sep-09 00:00N 05°23' E 100°22'0 0.0
2017-Sep-08 23:18N 05°23' E 100°22'0 0.0
2017-Sep-08 23:00N 05°23' E 100°22'0 0.0
2017-Sep-08 22:30N 05°23' E 100°22'0 0.0
2017-Sep-08 22:00N 05°23' E 100°22'0 0.0
2017-Sep-08 21:30N 05°23' E 100°22'0 0.0
2017-Sep-08 21:00N 05°23' E 100°22'0 0.0
2017-Sep-08 20:30N 05°23' E 100°22'0 0.0
2017-Sep-08 20:00N 05°23' E 100°22'0 0.0
2017-Sep-08 19:30N 05°23' E 100°22'0 0.0
2017-Sep-08 19:00N 05°23' E 100°22'0 0.0
2017-Sep-08 18:30N 05°23' E 100°22'0 0.0
2017-Sep-08 18:00N 05°23' E 100°22'0 0.0
2017-Sep-08 17:30N 05°23' E 100°22'0 0.0
2017-Sep-08 17:00N 05°23' E 100°22'0 0.0
2017-Sep-08 16:30N 05°23' E 100°22'0 0.0
2017-Sep-08 16:00N 05°23' E 100°22'0 0.0
2017-Sep-08 15:30N 05°23' E 100°22'0 0.0
2017-Sep-08 15:00N 05°23' E 100°22'0 0.0
2017-Sep-08 14:30N 05°23' E 100°22'0 0.0
2017-Sep-08 14:00N 05°23' E 100°22'0 0.0
2017-Sep-08 13:30N 05°23' E 100°22'0 0.0
2017-Sep-08 12:54N 05°23' E 100°22'0 0.0
2017-Sep-08 12:30N 05°23' E 100°22'0 0.0
2017-Sep-08 12:00N 05°23' E 100°22'0 0.0
2017-Sep-08 11:30N 05°23' E 100°22'0 0.0
2017-Sep-08 11:00N 05°23' E 100°22'0 0.0
2017-Sep-08 10:30N 05°23' E 100°22'0 0.0
2017-Sep-08 10:00N 05°23' E 100°22'0 0.0
2017-Sep-08 09:30N 05°23' E 100°22'0 0.0
2017-Sep-08 09:00N 05°23' E 100°22'0 0.0
2017-Sep-08 08:30N 05°23' E 100°22'0 0.0
2017-Sep-08 08:00N 05°23' E 100°22'0 0.0
2017-Sep-08 07:30N 05°23' E 100°22'0 0.0
2017-Sep-08 07:00N 05°23' E 100°22'0 0.0
2017-Sep-08 06:30N 05°23' E 100°22'0 0.0
2017-Sep-08 06:00N 05°23' E 100°22'0 0.0
2017-Sep-08 05:30N 05°23' E 100°22'0 0.0
2017-Sep-08 05:00N 05°23' E 100°22'0 0.0
2017-Sep-08 04:30N 05°23' E 100°22'0 0.0
2017-Sep-08 04:00N 05°23' E 100°22'0 0.0
2017-Sep-08 03:30N 05°23' E 100°22'0 0.0
2017-Sep-08 03:00N 05°23' E 100°22'0 0.0
2017-Sep-08 02:30N 05°23' E 100°22'0 0.0
2017-Sep-08 02:00N 05°23' E 100°22'0 0.0
2017-Sep-08 01:30N 05°23' E 100°22'0 0.0
2017-Sep-08 01:00N 05°23' E 100°22'0 0.0
2017-Sep-08 00:30N 05°23' E 100°22'0 0.0
2017-Sep-08 00:00N 05°23' E 100°22'0 0.0
2017-Sep-07 23:30N 05°23' E 100°22'0 0.0
2017-Sep-07 23:00N 05°23' E 100°22'0 0.0
2017-Sep-07 22:30N 05°23' E 100°22'0 0.0
2017-Sep-07 22:00N 05°23' E 100°22'0 0.0
2017-Sep-07 21:30N 05°23' E 100°22'0 0.0
2017-Sep-07 21:00N 05°23' E 100°22'0 0.0
2017-Sep-07 20:30N 05°23' E 100°22'0 0.0
2017-Sep-07 20:00N 05°23' E 100°22'0 0.0
2017-Sep-07 19:30N 05°23' E 100°22'0 0.0
2017-Sep-07 19:00N 05°23' E 100°22'0 0.0
2017-Sep-07 18:30N 05°23' E 100°22'0 0.0
2017-Sep-07 18:00N 05°23' E 100°22'0 0.0
2017-Sep-07 17:18N 05°23' E 100°22'0 0.0
2017-Sep-07 17:00N 05°23' E 100°22'0 0.0
2017-Sep-07 16:30N 05°23' E 100°22'0 0.0
2017-Sep-07 16:00N 05°23' E 100°22'0 0.0
2017-Sep-07 15:30N 05°23' E 100°22'0 0.0
2017-Sep-07 15:00N 05°23' E 100°22'0 0.0
2017-Sep-07 14:30N 05°23' E 100°22'0 0.0
2017-Sep-07 14:00N 05°23' E 100°22'0 0.0
2017-Sep-07 13:30N 05°23' E 100°22'0 0.0
2017-Sep-07 13:00N 05°23' E 100°22'0 0.0
2017-Sep-07 12:30N 05°23' E 100°22'0 0.0
2017-Sep-07 12:00N 05°23' E 100°22'0 0.0
2017-Sep-07 11:30N 05°23' E 100°22'0 0.0
2017-Sep-07 11:00N 05°23' E 100°22'0 0.0
2017-Sep-07 10:30N 05°23' E 100°22'0 0.0
2017-Sep-07 10:00N 05°23' E 100°22'0 0.0
2017-Sep-07 09:30N 05°23' E 100°22'0 0.0
2017-Sep-07 09:00N 05°23' E 100°22'0 0.0
2017-Sep-07 08:30N 05°23' E 100°22'0 0.0
2017-Sep-07 08:00N 05°23' E 100°22'0 0.0
2017-Sep-07 07:30N 05°23' E 100°22'0 0.0
2017-Sep-07 07:00N 05°23' E 100°22'0 0.0
2017-Sep-07 06:30N 05°23' E 100°22'0 0.0
2017-Sep-07 06:00N 05°23' E 100°22'0 0.0
2017-Sep-07 05:30N 05°23' E 100°22'0 0.0
2017-Sep-07 05:00N 05°23' E 100°22'0 0.0
2017-Sep-07 04:30N 05°23' E 100°22'0 0.0
2017-Sep-07 04:00N 05°23' E 100°22'0 0.0
2017-Sep-07 03:30N 05°23' E 100°22'0 0.0
2017-Sep-07 03:00N 05°23' E 100°22'0 0.0
2017-Sep-07 02:30N 05°23' E 100°22'0 0.0
2017-Sep-07 02:00N 05°23' E 100°22'0 0.0
2017-Sep-07 01:30N 05°23' E 100°22'0 0.0
2017-Sep-07 01:00N 05°23' E 100°22'0 0.0
2017-Sep-07 00:30N 05°23' E 100°22'0 0.0
2017-Sep-07 00:00N 05°23' E 100°22'0 0.0
2017-Sep-06 23:30N 05°23' E 100°22'0 0.0
2017-Sep-06 22:54N 05°23' E 100°22'0 0.0
2017-Sep-06 22:30N 05°23' E 100°22'0 0.0
2017-Sep-06 22:00N 05°23' E 100°22'0 0.0
2017-Sep-06 21:30N 05°23' E 100°22'0 0.0
2017-Sep-06 21:00N 05°23' E 100°22'0 0.0
2017-Sep-06 20:30N 05°23' E 100°22'0 0.0
2017-Sep-06 20:00N 05°23' E 100°22'0 0.0
2017-Sep-06 19:30N 05°23' E 100°22'0 0.0
2017-Sep-06 19:00N 05°23' E 100°22'0 0.0
2017-Sep-06 18:30N 05°23' E 100°22'0 0.0
2017-Sep-06 18:00N 05°23' E 100°22'0 0.0
2017-Sep-06 17:30N 05°23' E 100°22'0 0.0
2017-Sep-06 17:00N 05°23' E 100°22'0 0.0
2017-Sep-06 16:30N 05°23' E 100°22'0 0.0
2017-Sep-06 16:00N 05°23' E 100°22'0 0.0
2017-Sep-06 15:30N 05°23' E 100°22'0 0.0
2017-Sep-06 15:00N 05°23' E 100°22'0 0.0
2017-Sep-06 14:30N 05°23' E 100°22'0 0.0
2017-Sep-06 13:48N 05°23' E 100°22'0 0.0
2017-Sep-06 13:30N 05°23' E 100°22'0 0.0
2017-Sep-06 13:00N 05°23' E 100°22'0 0.0
2017-Sep-06 12:30N 05°23' E 100°22'0 0.0
2017-Sep-06 12:00N 05°23' E 100°22'0 0.0
2017-Sep-06 11:30N 05°23' E 100°22'0 0.0
2017-Sep-06 11:00N 05°23' E 100°22'0 0.0
2017-Sep-06 10:30N 05°23' E 100°22'0 0.0
2017-Sep-06 10:00N 05°23' E 100°22'0 0.0
2017-Sep-06 09:30N 05°23' E 100°22'0 0.0
2017-Sep-06 08:54N 05°23' E 100°22'0 0.0
2017-Sep-06 08:30N 05°23' E 100°22'0 0.0
2017-Sep-06 08:00N 05°23' E 100°22'0 0.0
2017-Sep-06 07:30N 05°23' E 100°22'0 0.0
2017-Sep-06 07:00N 05°23' E 100°22'0 0.0
2017-Sep-06 06:30N 05°23' E 100°22'0 0.0
2017-Sep-06 06:00N 05°23' E 100°22'0 0.0
2017-Sep-06 05:30N 05°23' E 100°22'0 0.0
2017-Sep-06 05:00N 05°23' E 100°22'0 0.0
2017-Sep-06 04:30N 05°23' E 100°22'0 0.0
2017-Sep-06 04:00N 05°23' E 100°22'0 0.0
2017-Sep-06 03:30N 05°23' E 100°22'0 0.0
2017-Sep-06 03:00N 05°23' E 100°22'0 0.0
2017-Sep-06 02:30N 05°23' E 100°22'0 0.0
2017-Sep-06 02:00N 05°23' E 100°22'0 0.0
2017-Sep-06 01:30N 05°23' E 100°22'0 0.0
2017-Sep-06 01:00N 05°23' E 100°22'0 0.0
2017-Sep-06 00:30N 05°23' E 100°22'0 0.0
2017-Sep-06 00:00N 05°23' E 100°22'0 0.0
2017-Sep-05 23:30N 05°23' E 100°22'0 0.0
2017-Sep-05 23:00N 05°23' E 100°22'0 0.0
2017-Sep-05 22:30N 05°23' E 100°22'0 0.0
2017-Sep-05 22:00N 05°23' E 100°22'0 0.0
2017-Sep-05 21:30N 05°23' E 100°22'0 0.0
2017-Sep-05 21:00N 05°23' E 100°22'0 0.0
2017-Sep-05 20:12N 05°23' E 100°22'0 0.0
2017-Sep-05 20:00N 05°23' E 100°22'0 0.0
2017-Sep-05 19:30N 05°23' E 100°22'0 0.0
2017-Sep-05 19:00N 05°23' E 100°22'0 0.0
2017-Sep-05 18:30N 05°23' E 100°22'0 0.0
2017-Sep-05 18:00N 05°23' E 100°22'0 0.0
2017-Sep-05 17:30N 05°23' E 100°22'0 0.0
2017-Sep-05 17:00N 05°23' E 100°22'0 0.0
2017-Sep-05 16:24N 05°23' E 100°22'0 0.0
2017-Sep-05 16:00N 05°23' E 100°22'0 0.0
2017-Sep-05 15:30N 05°23' E 100°22'0 0.0
2017-Sep-05 15:00N 05°23' E 100°22'0 0.0
2017-Sep-05 14:30N 05°23' E 100°22'0 0.0
2017-Sep-05 14:00N 05°23' E 100°22'0 0.0
2017-Sep-05 13:30N 05°23' E 100°22'0 0.0
2017-Sep-05 13:00N 05°23' E 100°22'0 0.0
2017-Sep-05 12:30N 05°23' E 100°22'0 0.0
2017-Sep-05 12:00N 05°23' E 100°22'0 0.0
2017-Sep-05 11:30N 05°23' E 100°22'0 0.0
2017-Sep-05 11:00N 05°23' E 100°22'0 0.0
2017-Sep-05 10:30N 05°23' E 100°22'  

Dump ship's entire track history